METAR Data
IDs: Format: Raw Decoded Include TAF

Data at: 2147 UTC 08 Aug 2020

KBEH 082053Z AUTO VRB05KT 10SM CLR 29/17 A3012 RMK AO2 SLP195 T02940167 56006
KBEH 081953Z AUTO 24006KT 10SM CLR 29/16 A3012 RMK AO2 SLP196 T02940161
KBEH 081853Z AUTO 19006KT 10SM FEW060 29/15 A3013 RMK AO2 SLP198 T02890150
KBEH 081753Z AUTO 19010KT 10SM CLR 28/14 A3014 RMK AO2 SLP201 T02830139 10283 20178 58010
KBEH 081653Z AUTO 17011G17KT 10SM CLR 28/13 A3016 RMK AO2 SLP211 T02780133
KBEH 081553Z AUTO 17009KT 10SM CLR 27/13 A3018 RMK AO2 SLP217 T02670133
KBEH 081453Z AUTO 20008KT 10SM CLR 26/13 A3017 RMK AO2 SLP213 T02560133 58001
KBEH 081353Z AUTO 19006KT 10SM CLR 23/14 A3018 RMK AO2 SLP217 T02330144
KBEH 081253Z AUTO 18006KT 10SM CLR 20/14 A3017 RMK AO2 SLP213 T02000144
KBEH 081153Z AUTO 17004KT 10SM CLR 18/14 A3017 RMK AO2 SLP214 T01780139 10178 20144 50004
KBEH 081053Z AUTO 00000KT 10SM CLR 15/12 A3017 RMK AO2 SLP215 T01500122
KBEH 080953Z AUTO 16005KT 10SM CLR 15/12 A3016 RMK AO2 SLP209 T01500122
KBEH 080853Z AUTO 12003KT 10SM CLR 15/13 A3016 RMK AO2 SLP209 T01500128 56001
KBEH 080753Z AUTO 17003KT 10SM CLR 16/13 A3016 RMK AO2 SLP210 T01560128
KBEH 080653Z AUTO 00000KT 10SM CLR 16/14 A3016 RMK AO2 SLP208 T01610139
KBEH 080553Z AUTO 08003KT 10SM CLR 16/13 A3016 RMK AO2 SLP210 T01560133 10244 20144 53003
KBEH 080453Z AUTO 11004KT 10SM CLR 14/13 A3015 RMK AO2 SLP206 T01440128 402830111
KBEH 080353Z AUTO 00000KT 10SM CLR 17/14 A3015 RMK AO2 SLP208 T01670139
KBEH 080253Z AUTO 00000KT 10SM CLR 17/15 A3015 RMK AO2 SLP207 T01720150 53003
KBEH 080153Z AUTO 00000KT 10SM CLR 19/16 A3015 RMK AO2 SLP206 T01890156
KBEH 080053Z AUTO 00000KT 10SM CLR 21/16 A3014 RMK AO2 SLP203 T02110156
KBEH 072353Z AUTO 00000KT 10SM CLR 24/15 A3014 RMK AO2 SLP205 T02440150 10283 20244 58006
KBEH 072253Z AUTO VRB05KT 10SM CLR 25/13 A3015 RMK AO2 SLP208 T02500133
KBEH 072153Z AUTO 31006KT 10SM CLR 26/14 A3016 RMK AO2 SLP210 T02560144
KBEH 072053Z AUTO VRB06KT 10SM CLR 26/13 A3016 RMK AO2 SLP211 T02610133 56006
KBEH 071953Z AUTO 10SM FEW060 26/13 A3016 RMK AO2 SLP212 T02610133
KBEH 071853Z AUTO VRB03KT 10SM CLR 28/09 A3016 RMK AO2 SLP211 T02780094
KBEH 071753Z AUTO 10SM FEW060 27/11 A3018 RMK AO2 SLP216 T02670106 10278 20139 58001
KBEH 071653Z AUTO 08005KT 10SM SCT055 27/11 A3018 RMK AO2 SLP218 T02670106
KBEH 071553Z AUTO VRB03KT 10SM BKN049 24/12 A3018 RMK AO2 SLP218 T02440122
KBEH 071453Z AUTO 00000KT 10SM CLR 25/14 A3018 RMK AO2 SLP217 T02500139 50000
KBEH 071353Z AUTO 00000KT 10SM CLR 22/14 A3018 RMK AO2 SLP218 T02220144
KBEH 071253Z AUTO 00000KT 10SM CLR 18/14 A3018 RMK AO2 SLP219 T01830144
KBEH 071153Z AUTO 00000KT 9SM CLR 14/12 A3018 RMK AO2 SLP217 T01390122 10139 20111 51009
KBEH 071053Z AUTO 00000KT 7SM CLR 11/10 A3017 RMK AO2 SLP216 T01110100
KBEH 070953Z AUTO 00000KT 10SM CLR 12/10 A3016 RMK AO2 SLP210 T01170100